createdAt,value
2018-04-12T00:02:17.539Z,62.73
2018-04-12T00:07:20.098Z,62.95
2018-04-12T00:12:22.588Z,63.00
2018-04-12T00:17:25.097Z,63.52
2018-04-12T00:22:27.573Z,63.58
2018-04-12T00:27:30.062Z,63.50
2018-04-12T00:32:32.556Z,63.36
2018-04-12T00:37:35.186Z,63.70
2018-04-12T00:42:37.697Z,63.61
2018-04-12T00:47:40.182Z,63.65
2018-04-12T00:52:42.769Z,63.91
2018-04-12T00:57:45.469Z,63.98
2018-04-12T01:02:48.087Z,64.13
2018-04-12T01:07:51.309Z,64.55
2018-04-12T01:12:53.855Z,64.54
2018-04-12T01:17:56.342Z,64.43
2018-04-12T01:22:58.868Z,64.91
2018-04-12T01:28:01.468Z,64.78
2018-04-12T01:33:22.834Z,65.04
2018-04-12T01:38:25.393Z,65.81
2018-04-12T01:43:27.867Z,65.35
2018-04-12T01:48:30.390Z,65.46
2018-04-12T01:53:32.887Z,65.23
2018-04-12T01:58:35.354Z,65.74
2018-04-12T02:03:37.889Z,65.75
2018-04-12T02:08:40.359Z,66.12
2018-04-12T02:13:42.922Z,66.11
2018-04-12T02:18:45.446Z,66.05
2018-04-12T02:23:50.139Z,66.10
2018-04-12T02:28:52.787Z,66.34
2018-04-12T02:33:55.263Z,66.48
2018-04-12T02:38:57.757Z,66.17
2018-04-12T02:44:00.233Z,66.65
2018-04-12T02:49:02.709Z,66.95
2018-04-12T02:54:05.200Z,66.48
2018-04-12T02:59:07.667Z,66.14
2018-04-12T03:04:10.163Z,66.24
2018-04-12T03:09:13.517Z,66.42
2018-04-12T03:14:16.230Z,66.65
2018-04-12T03:19:19.323Z,66.69
2018-04-12T03:24:21.882Z,66.90
2018-04-12T03:29:24.380Z,66.88
2018-04-12T03:34:26.867Z,67.17
2018-04-12T03:39:29.371Z,67.44
2018-04-12T03:44:31.872Z,67.09
2018-04-12T03:49:34.463Z,67.22
2018-04-12T03:54:37.127Z,67.19
2018-04-12T03:59:39.656Z,67.29
2018-04-12T04:04:42.301Z,67.55
2018-04-12T04:09:44.985Z,67.84
2018-04-12T04:20:34.724Z,67.87
2018-04-12T04:25:37.255Z,67.61
2018-04-12T04:30:39.712Z,67.46
2018-04-12T04:35:42.311Z,67.22
2018-04-12T04:40:44.920Z,67.18
2018-04-12T04:45:47.548Z,66.83
2018-04-12T04:50:50.092Z,66.62
2018-04-12T04:55:52.641Z,66.27
2018-04-12T05:00:55.102Z,65.81
2018-04-12T05:05:57.864Z,65.17
2018-04-12T05:11:00.337Z,64.76
2018-04-12T05:16:02.837Z,64.19
2018-04-12T05:21:05.316Z,63.65
2018-04-12T05:26:07.852Z,61.82
2018-04-12T05:31:10.349Z,58.83
2018-04-12T05:36:12.934Z,56.42
2018-04-12T05:41:16.496Z,53.80
2018-04-12T05:46:19.027Z,52.24
2018-04-12T05:51:21.566Z,52.32
2018-04-12T05:56:24.158Z,51.52
2018-04-12T06:01:26.637Z,48.42
2018-04-12T06:06:29.091Z,47.91
2018-04-12T06:11:31.632Z,46.82
2018-04-12T06:16:34.127Z,49.19
2018-04-12T06:21:36.597Z,54.51
2018-04-12T06:26:39.069Z,55.10
2018-04-12T06:31:41.779Z,56.93
2018-04-12T06:36:45.479Z,56.58
2018-04-12T06:41:48.054Z,57.18
2018-04-12T06:46:50.670Z,57.24
2018-04-12T06:51:54.189Z,57.12
2018-04-12T06:56:57.000Z,56.44
2018-04-12T07:01:59.658Z,56.10
2018-04-12T07:07:02.131Z,56.27
2018-04-12T07:12:04.632Z,56.36
2018-04-12T07:17:07.106Z,56.07
2018-04-12T07:22:09.553Z,55.70
2018-04-12T07:27:12.059Z,54.54
2018-04-12T07:32:14.567Z,52.31
2018-04-12T07:37:17.095Z,51.87
2018-04-12T07:42:19.630Z,51.00
2018-04-12T07:47:22.282Z,50.18
2018-04-12T07:52:24.805Z,49.71
2018-04-12T07:57:27.275Z,49.93
2018-04-12T08:02:29.766Z,50.01
2018-04-12T08:07:32.281Z,48.34
2018-04-12T08:12:34.793Z,47.71
2018-04-12T08:17:38.358Z,47.63
2018-04-12T08:22:40.887Z,48.01
2018-04-12T08:27:43.460Z,48.24
2018-04-12T08:32:46.323Z,45.46
2018-04-12T08:37:48.923Z,45.23
2018-04-12T08:42:51.439Z,44.01
2018-04-12T08:47:54.041Z,44.82
2018-04-12T08:52:56.661Z,42.92
2018-04-12T08:57:59.153Z,43.06
2018-04-12T09:03:01.660Z,42.49
2018-04-12T09:08:04.138Z,42.82
2018-04-12T09:13:06.620Z,44.14
2018-04-12T09:18:09.226Z,41.04
2018-04-12T09:23:11.968Z,37.36
2018-04-12T09:28:14.753Z,35.96
2018-04-12T09:33:17.387Z,35.93
2018-04-12T09:38:19.828Z,38.79
2018-04-12T09:43:22.303Z,36.83
2018-04-12T09:48:24.751Z,36.29
2018-04-12T09:53:27.233Z,34.24
2018-04-12T09:58:30.052Z,33.69
2018-04-12T10:03:32.988Z,36.70
2018-04-12T10:08:35.473Z,37.75
2018-04-12T10:13:38.099Z,38.75
2018-04-12T10:18:40.683Z,37.86
2018-04-12T10:23:43.254Z,36.45
2018-04-12T10:28:45.798Z,36.62
2018-04-12T10:33:48.401Z,37.34
2018-04-12T10:38:50.992Z,36.71
2018-04-12T10:43:53.549Z,35.46
2018-04-12T10:48:56.121Z,33.59
2018-04-12T10:53:58.592Z,32.56
2018-04-12T10:59:01.073Z,32.08
2018-04-12T11:04:03.568Z,32.85
2018-04-12T11:09:06.044Z,31.86
2018-04-12T11:14:08.555Z,31.87
2018-04-12T11:19:11.245Z,31.25
2018-04-12T11:24:13.890Z,31.61
2018-04-12T11:29:17.476Z,31.97
2018-04-12T11:34:21.336Z,30.31
2018-04-12T11:39:24.051Z,30.49
2018-04-12T11:44:26.648Z,30.82
2018-04-12T11:49:29.119Z,30.26
2018-04-12T11:54:31.598Z,31.08
2018-04-12T11:59:34.241Z,30.52
2018-04-12T12:04:36.747Z,30.26
2018-04-12T12:09:39.260Z,29.46
2018-04-12T12:14:41.707Z,29.93
2018-04-12T12:19:44.511Z,29.86
2018-04-12T12:24:47.315Z,31.12
2018-04-12T12:29:49.838Z,30.49
2018-04-12T12:34:52.352Z,30.30
2018-04-12T12:39:54.864Z,29.35
2018-04-12T12:44:57.339Z,30.05
2018-04-12T12:49:59.830Z,28.98
2018-04-12T12:55:02.465Z,28.50
2018-04-12T13:00:04.944Z,28.76
2018-04-12T13:05:07.852Z,28.72
2018-04-12T13:10:10.335Z,28.63
2018-04-12T13:15:12.815Z,27.77
2018-04-12T13:20:15.328Z,28.43
2018-04-12T13:25:17.899Z,28.58
2018-04-12T13:30:20.413Z,27.42
2018-04-12T13:35:22.916Z,26.53
2018-04-12T13:40:25.419Z,26.54
2018-04-12T13:45:27.896Z,25.72
2018-04-12T13:50:30.372Z,25.43
2018-04-12T13:55:32.830Z,24.49
2018-04-12T14:00:35.298Z,25.13
2018-04-12T14:05:37.789Z,25.80
2018-04-12T14:10:40.267Z,25.45
2018-04-12T14:15:42.826Z,25.25
2018-04-12T14:20:45.397Z,26.05
2018-04-12T14:25:47.968Z,26.23
2018-04-12T14:30:50.499Z,26.03
2018-04-12T14:35:53.013Z,26.22
2018-04-12T14:40:55.498Z,25.30
2018-04-12T14:45:58.808Z,25.84
2018-04-12T14:51:01.322Z,26.37
2018-04-12T14:56:03.804Z,26.66
2018-04-12T15:01:06.284Z,26.11
2018-04-12T15:06:10.848Z,26.28
2018-04-12T15:11:13.441Z,27.43
2018-04-12T15:16:16.029Z,27.88
2018-04-12T15:21:18.540Z,28.44
2018-04-12T15:26:21.027Z,28.50
2018-04-12T15:31:23.564Z,28.74
2018-04-12T15:36:26.028Z,28.66
2018-04-12T15:41:28.490Z,29.05
2018-04-12T15:46:30.959Z,28.78
2018-04-12T15:51:33.422Z,28.87
2018-04-12T15:56:35.946Z,28.93
2018-04-12T16:01:38.431Z,29.05
2018-04-12T16:06:40.889Z,29.54
2018-04-12T16:11:43.418Z,29.50
2018-04-12T16:16:45.941Z,29.43
2018-04-12T16:21:48.533Z,29.80
2018-04-12T16:26:51.041Z,29.79
2018-04-12T16:31:53.522Z,30.46
2018-04-12T16:36:55.985Z,31.28
2018-04-12T16:41:58.477Z,30.97
2018-04-12T16:47:00.968Z,31.39
2018-04-12T16:52:03.442Z,32.09
2018-04-12T16:57:05.910Z,35.09
2018-04-12T17:02:08.417Z,36.49
2018-04-12T17:07:10.889Z,37.01
2018-04-12T17:12:13.553Z,37.85
2018-04-12T17:17:16.101Z,38.34
2018-04-12T17:22:18.954Z,38.84
2018-04-12T17:27:21.431Z,39.26
2018-04-12T17:32:23.938Z,39.67
2018-04-12T17:37:29.166Z,40.09
2018-04-12T17:42:31.832Z,40.40
2018-04-12T17:47:34.320Z,40.61
2018-04-12T17:52:36.807Z,40.83
2018-04-12T17:57:39.312Z,41.29
2018-04-12T18:02:41.800Z,41.31
2018-04-12T18:07:44.375Z,41.65
2018-04-12T18:12:46.924Z,41.84
2018-04-12T18:17:49.446Z,42.22
2018-04-12T18:22:51.935Z,42.54
2018-04-12T18:27:54.413Z,42.83
2018-04-12T18:32:56.882Z,42.95
2018-04-12T18:37:59.373Z,43.23
2018-04-12T18:43:01.885Z,43.68
2018-04-12T18:48:04.388Z,43.93
2018-04-12T18:53:06.874Z,44.33
2018-04-12T18:58:09.382Z,44.36
2018-04-12T19:03:11.872Z,44.82
2018-04-12T19:08:14.720Z,44.93
2018-04-12T19:13:17.277Z,45.33
2018-04-12T19:18:19.998Z,45.51
2018-04-12T19:23:22.486Z,45.57
2018-04-12T19:28:26.240Z,46.13
2018-04-12T19:33:28.786Z,46.46
2018-04-12T19:38:31.299Z,46.71
2018-04-12T19:43:33.863Z,47.15
2018-04-12T19:48:36.313Z,47.12
2018-04-12T19:53:38.809Z,47.49
2018-04-12T19:58:41.283Z,47.65
2018-04-12T20:03:43.860Z,48.10
2018-04-12T20:08:46.368Z,48.29
2018-04-12T20:13:48.917Z,48.74
2018-04-12T20:18:51.424Z,49.12
2018-04-12T20:23:53.921Z,49.07
2018-04-12T20:28:56.393Z,49.08
2018-04-12T20:33:58.950Z,49.42
2018-04-12T20:39:01.414Z,49.84
2018-04-12T20:44:03.903Z,50.14
2018-04-12T20:49:06.399Z,50.45
2018-04-12T20:54:08.868Z,50.70
2018-04-12T20:59:11.353Z,50.82
2018-04-12T21:04:14.515Z,51.05
2018-04-12T21:09:17.130Z,51.42
2018-04-12T21:14:19.675Z,51.63
2018-04-12T21:19:22.208Z,51.97
2018-04-12T21:24:24.691Z,52.37
2018-04-12T21:29:27.174Z,52.49
2018-04-12T21:34:29.662Z,52.39
2018-04-12T21:39:32.238Z,52.52
2018-04-12T21:44:34.708Z,52.72
2018-04-12T21:49:37.222Z,53.02
2018-04-12T21:54:39.720Z,53.28
2018-04-12T21:59:42.211Z,53.48
2018-04-12T22:04:44.735Z,53.57
2018-04-12T22:09:47.318Z,53.42
2018-04-12T22:14:49.854Z,53.58
2018-04-12T22:19:52.391Z,53.80
2018-04-12T22:24:54.932Z,53.94
2018-04-12T22:29:57.396Z,53.67
2018-04-12T22:34:59.855Z,54.04
2018-04-12T22:40:02.403Z,53.79
2018-04-12T22:45:04.868Z,53.50
2018-04-12T22:50:07.347Z,53.39
2018-04-12T22:55:10.261Z,53.46
2018-04-12T23:00:13.710Z,53.36
2018-04-12T23:05:16.286Z,53.25
2018-04-12T23:10:18.811Z,53.61
2018-04-12T23:15:21.523Z,53.14
2018-04-12T23:20:24.035Z,53.19
2018-04-12T23:25:26.520Z,53.47
2018-04-12T23:30:29.020Z,53.52
2018-04-12T23:35:31.513Z,53.21
2018-04-12T23:40:34.035Z,53.38
2018-04-12T23:45:36.532Z,53.16
2018-04-12T23:50:39.006Z,53.20
2018-04-12T23:55:41.501Z,52.84
